East Smethport, Pennsylvania
Current Conditions -  °F | °C
As of 9:13 PM on Thursday 20 Nov 2014 (Local Time) from KBFD Reporting Station
Light Snow Light Snow  
Wind Chill:   Ceiling: 2500
Heat Index: 18°   Visibility: 2.5mi
Dew Point: 10°   Wind: 10mph
Humidity: 71%   Direction: 230°SW
Pressure: 29.91"   Gusts: 16mph
Location:  41.81°N, 78.42°W
Report Text: KBFD 210213Z AUTO 23009G14KT 2 1/2SM -SN OVC025 M08/M12 A2991 RMK AO2 SNB0156 P0000 T10781122
Loading
Personal Weather Stations






























Interactive Weather Map New forecast layout! Learn more

10-Day Weather Forecast

Advertisements
Track Severe Weather on mobile